createdAt,value
2019-01-13T00:01:59.765Z,46.93
2019-01-13T00:05:06.527Z,46.78
2019-01-13T00:08:13.151Z,47.10
2019-01-13T00:11:18.804Z,47.69
2019-01-13T00:14:24.399Z,48.02
2019-01-13T00:17:31.012Z,48.48
2019-01-13T00:20:36.649Z,48.27
2019-01-13T00:23:42.247Z,47.98
2019-01-13T00:26:47.865Z,48.19
2019-01-13T00:29:53.488Z,48.36
2019-01-13T00:32:59.163Z,48.70
2019-01-13T00:36:04.925Z,48.30
2019-01-13T00:39:10.727Z,47.62
2019-01-13T00:42:16.387Z,48.49
2019-01-13T00:45:22.000Z,48.43
2019-01-13T00:48:27.728Z,48.12
2019-01-13T00:51:33.400Z,48.80
2019-01-13T00:54:38.986Z,47.99
2019-01-13T00:57:44.626Z,48.07
2019-01-13T01:00:50.251Z,47.76
2019-01-13T01:03:55.968Z,47.65
2019-01-13T01:07:01.666Z,47.78
2019-01-13T01:10:09.990Z,47.39
2019-01-13T01:13:15.588Z,47.31
2019-01-13T01:16:21.203Z,47.44
2019-01-13T01:19:26.834Z,47.88
2019-01-13T01:22:32.504Z,47.40
2019-01-13T01:25:38.222Z,47.44
2019-01-13T01:28:44.477Z,47.33
2019-01-13T01:31:50.142Z,46.84
2019-01-13T01:34:55.778Z,46.58
2019-01-13T01:38:01.498Z,46.40
2019-01-13T01:41:07.089Z,46.06
2019-01-13T01:44:12.696Z,45.75
2019-01-13T01:47:18.291Z,45.95
2019-01-13T01:50:23.893Z,45.76
2019-01-13T01:53:29.519Z,47.41
2019-01-13T01:56:35.170Z,47.41
2019-01-13T01:59:40.764Z,46.80
2019-01-13T02:02:46.944Z,46.59
2019-01-13T02:05:52.625Z,47.04
2019-01-13T02:08:58.293Z,47.07
2019-01-13T02:12:04.036Z,49.25
2019-01-13T02:15:12.576Z,47.71
2019-01-13T02:18:18.238Z,47.29
2019-01-13T02:21:23.982Z,47.25
2019-01-13T02:24:29.626Z,47.27
2019-01-13T02:27:35.286Z,46.61
2019-01-13T02:30:48.773Z,49.16
2019-01-13T02:33:48.560Z,48.78
2019-01-13T02:36:54.181Z,49.56
2019-01-13T02:39:59.798Z,48.66
2019-01-13T02:43:05.566Z,47.76
2019-01-13T02:46:11.176Z,47.94
2019-01-13T02:49:17.139Z,48.26
2019-01-13T02:52:22.800Z,47.94
2019-01-13T02:55:28.433Z,47.65
2019-01-13T02:58:34.051Z,47.45
2019-01-13T03:01:39.631Z,47.41
2019-01-13T03:04:45.252Z,47.55
2019-01-13T03:07:50.832Z,47.50
2019-01-13T03:10:56.520Z,48.51
2019-01-13T03:14:02.142Z,48.79
2019-01-13T03:17:07.762Z,48.57
2019-01-13T03:20:13.760Z,48.26
2019-01-13T03:23:19.428Z,48.18
2019-01-13T03:26:25.182Z,49.54
2019-01-13T03:29:30.840Z,48.65
2019-01-13T03:32:36.472Z,48.86
2019-01-13T03:35:42.119Z,49.89
2019-01-13T03:38:47.774Z,49.69
2019-01-13T03:41:53.411Z,49.47
2019-01-13T03:44:59.020Z,49.05
2019-01-13T03:48:04.727Z,49.05
2019-01-13T03:51:10.368Z,48.25
2019-01-13T03:54:16.057Z,47.89
2019-01-13T03:57:21.811Z,47.73
2019-01-13T04:00:27.674Z,47.50
2019-01-13T04:03:33.325Z,47.35
2019-01-13T04:06:38.947Z,48.47
2019-01-13T04:09:44.528Z,49.26
2019-01-13T04:12:50.205Z,48.96
2019-01-13T04:16:05.057Z,50.85
2019-01-13T04:19:10.665Z,50.21
2019-01-13T04:22:16.316Z,48.90
2019-01-13T04:25:21.980Z,49.33
2019-01-13T04:28:27.585Z,49.10
2019-01-13T04:31:33.171Z,48.56
2019-01-13T04:34:38.804Z,48.40
2019-01-13T04:37:44.433Z,49.14
2019-01-13T04:40:50.099Z,50.28
2019-01-13T04:43:55.719Z,49.26
2019-01-13T04:47:01.458Z,49.05
2019-01-13T04:50:07.642Z,48.82
2019-01-13T04:53:13.270Z,48.48
2019-01-13T04:56:18.878Z,48.71
2019-01-13T04:59:24.449Z,49.62
2019-01-13T05:02:30.169Z,49.17
2019-01-13T05:05:35.775Z,48.86
2019-01-13T05:08:41.370Z,49.20
2019-01-13T05:11:47.015Z,49.48
2019-01-13T05:14:52.664Z,49.65
2019-01-13T05:17:58.255Z,49.48
2019-01-13T05:21:04.017Z,49.77
2019-01-13T05:24:09.659Z,49.71
2019-01-13T05:27:15.266Z,49.72
2019-01-13T05:30:22.566Z,50.24
2019-01-13T05:33:28.157Z,50.13
2019-01-13T05:36:33.789Z,50.42
2019-01-13T05:39:39.358Z,50.30
2019-01-13T05:42:45.168Z,50.24
2019-01-13T05:45:50.802Z,50.25
2019-01-13T05:48:56.856Z,50.61
2019-01-13T05:52:02.515Z,49.88
2019-01-13T05:55:08.583Z,50.40
2019-01-13T05:58:14.208Z,50.32
2019-01-13T06:01:19.813Z,49.92
2019-01-13T06:04:25.447Z,50.66
2019-01-13T06:07:31.086Z,50.47
2019-01-13T06:10:36.765Z,49.99
2019-01-13T06:13:42.399Z,50.25
2019-01-13T06:16:48.148Z,49.78
2019-01-13T06:19:53.739Z,50.47
2019-01-13T06:22:59.421Z,50.35
2019-01-13T06:26:05.115Z,49.70
2019-01-13T06:29:10.773Z,48.86
2019-01-13T06:32:16.418Z,47.88
2019-01-13T06:35:22.284Z,46.97
2019-01-13T06:38:27.901Z,47.04
2019-01-13T06:41:33.496Z,46.01
2019-01-13T06:44:39.110Z,45.42
2019-01-13T06:47:44.840Z,45.52
2019-01-13T06:50:50.415Z,44.12
2019-01-13T06:53:56.111Z,44.75
2019-01-13T06:57:01.734Z,44.58
2019-01-13T07:00:13.964Z,44.01
2019-01-13T07:03:19.598Z,43.78
2019-01-13T07:06:25.342Z,44.49
2019-01-13T07:09:31.011Z,44.31
2019-01-13T07:12:36.685Z,43.54
2019-01-13T07:15:42.349Z,45.31
2019-01-13T07:18:48.040Z,45.38
2019-01-13T07:21:54.776Z,45.36
2019-01-13T07:25:00.402Z,46.21
2019-01-13T07:28:06.109Z,46.43
2019-01-13T07:31:11.701Z,45.56
2019-01-13T07:34:17.330Z,45.50
2019-01-13T07:37:22.972Z,45.06
2019-01-13T07:40:28.585Z,45.09
2019-01-13T07:43:34.228Z,43.16
2019-01-13T07:46:39.828Z,42.37
2019-01-13T07:49:45.463Z,43.79
2019-01-13T07:52:51.070Z,43.15
2019-01-13T07:55:56.677Z,42.68
2019-01-13T07:59:02.462Z,41.17
2019-01-13T08:02:08.168Z,41.08
2019-01-13T08:05:13.568Z,41.31
2019-01-13T08:08:19.391Z,41.28
2019-01-13T08:11:25.261Z,40.59
2019-01-13T08:14:30.944Z,39.42
2019-01-13T08:17:36.640Z,39.22
2019-01-13T08:20:42.285Z,38.80
2019-01-13T08:23:47.923Z,38.59
2019-01-13T08:26:53.628Z,37.79
2019-01-13T08:30:00.325Z,37.26
2019-01-13T08:33:06.087Z,36.72
2019-01-13T08:36:11.714Z,35.90
2019-01-13T08:39:17.394Z,36.25
2019-01-13T08:42:23.038Z,35.82
2019-01-13T08:45:28.931Z,35.41
2019-01-13T08:48:34.621Z,34.67
2019-01-13T08:51:40.277Z,34.29
2019-01-13T08:54:45.944Z,34.08
2019-01-13T08:57:51.560Z,33.48
2019-01-13T09:00:57.232Z,34.10
2019-01-13T09:04:02.861Z,33.65
2019-01-13T09:07:08.520Z,33.86
2019-01-13T09:10:16.194Z,33.36
2019-01-13T09:13:21.980Z,33.15
2019-01-13T09:16:27.826Z,33.20
2019-01-13T09:19:33.477Z,33.03
2019-01-13T09:22:39.220Z,32.57
2019-01-13T09:25:44.841Z,32.66
2019-01-13T09:28:50.464Z,32.32
2019-01-13T09:31:56.083Z,31.68
2019-01-13T09:35:01.781Z,31.81
2019-01-13T09:38:07.793Z,32.02
2019-01-13T09:41:13.412Z,31.70
2019-01-13T09:44:19.036Z,31.58
2019-01-13T09:47:24.843Z,31.26
2019-01-13T09:50:30.573Z,32.00
2019-01-13T09:53:36.322Z,31.72
2019-01-13T09:56:41.989Z,31.12
2019-01-13T09:59:47.640Z,30.86
2019-01-13T10:02:53.266Z,30.61
2019-01-13T10:05:58.896Z,31.21
2019-01-13T10:09:06.929Z,30.33
2019-01-13T10:12:12.556Z,30.28
2019-01-13T10:15:19.908Z,30.89
2019-01-13T10:18:25.538Z,30.84
2019-01-13T10:21:31.158Z,30.30
2019-01-13T10:24:36.769Z,29.95
2019-01-13T10:27:42.503Z,29.81
2019-01-13T10:30:48.228Z,30.59
2019-01-13T10:33:53.985Z,29.92
2019-01-13T10:36:59.763Z,29.70
2019-01-13T10:40:06.484Z,29.13
2019-01-13T10:43:12.401Z,29.07
2019-01-13T10:46:18.180Z,29.68
2019-01-13T10:49:23.913Z,30.54
2019-01-13T10:52:29.615Z,30.85
2019-01-13T10:55:35.352Z,31.37
2019-01-13T10:58:41.221Z,30.57
2019-01-13T11:01:46.873Z,30.50
2019-01-13T11:04:53.601Z,30.18
2019-01-13T11:07:59.512Z,29.57
2019-01-13T11:11:05.294Z,29.19
2019-01-13T11:14:11.220Z,29.65
2019-01-13T11:17:16.996Z,29.05
2019-01-13T11:20:25.739Z,29.38
2019-01-13T11:23:31.481Z,29.05
2019-01-13T11:26:37.100Z,29.86
2019-01-13T11:29:42.759Z,29.80
2019-01-13T11:32:48.509Z,29.44
2019-01-13T11:35:54.125Z,29.74
2019-01-13T11:38:59.769Z,29.19
2019-01-13T11:42:05.615Z,29.20
2019-01-13T11:45:11.984Z,28.92
2019-01-13T11:48:17.678Z,29.30
2019-01-13T11:51:23.412Z,29.63
2019-01-13T11:54:29.066Z,30.04
2019-01-13T11:57:34.726Z,30.52
2019-01-13T12:00:42.828Z,31.15
2019-01-13T12:03:48.626Z,31.21
2019-01-13T12:06:54.290Z,30.39
2019-01-13T12:09:59.938Z,30.70
2019-01-13T12:13:07.097Z,30.95
2019-01-13T12:16:12.720Z,31.19
2019-01-13T12:19:18.397Z,30.83
2019-01-13T12:22:26.794Z,30.80
2019-01-13T12:25:32.413Z,30.82
2019-01-13T12:28:38.087Z,30.53
2019-01-13T12:31:43.737Z,30.40
2019-01-13T12:34:49.395Z,31.30
2019-01-13T12:37:55.268Z,31.73
2019-01-13T12:41:01.106Z,32.26
2019-01-13T12:44:06.761Z,32.30
2019-01-13T12:47:12.587Z,32.39
2019-01-13T12:50:21.025Z,31.79
2019-01-13T12:53:27.777Z,31.42
2019-01-13T12:56:33.426Z,31.04
2019-01-13T12:59:39.058Z,31.30
2019-01-13T13:02:44.858Z,31.42
2019-01-13T13:05:50.538Z,32.06
2019-01-13T13:08:56.219Z,31.66
2019-01-13T13:12:01.932Z,31.95
2019-01-13T13:15:08.585Z,32.34
2019-01-13T13:18:14.240Z,32.24
2019-01-13T13:21:19.882Z,32.82
2019-01-13T13:24:25.487Z,32.49
2019-01-13T13:27:31.192Z,32.22
2019-01-13T13:30:37.040Z,31.82
2019-01-13T13:33:42.683Z,31.52
2019-01-13T13:36:49.349Z,32.45
2019-01-13T13:39:54.962Z,33.33
2019-01-13T13:43:00.682Z,32.76
2019-01-13T13:46:06.841Z,32.74
2019-01-13T13:49:12.494Z,32.98
2019-01-13T13:52:18.123Z,33.67
2019-01-13T13:55:23.913Z,33.45
2019-01-13T13:58:29.541Z,33.87
2019-01-13T14:01:35.247Z,33.68
2019-01-13T14:04:40.967Z,33.16
2019-01-13T14:07:46.619Z,33.60
2019-01-13T14:10:52.378Z,33.72
2019-01-13T14:13:57.997Z,33.76
2019-01-13T14:17:03.755Z,34.39
2019-01-13T14:20:11.911Z,34.22
2019-01-13T14:23:17.524Z,35.73
2019-01-13T14:26:23.218Z,35.58
2019-01-13T14:29:28.890Z,36.12
2019-01-13T14:32:34.539Z,36.90
2019-01-13T14:35:40.203Z,36.82
2019-01-13T14:38:45.845Z,37.14
2019-01-13T14:41:51.478Z,37.63
2019-01-13T14:44:57.107Z,37.32
2019-01-13T14:48:02.838Z,37.60
2019-01-13T14:51:08.474Z,37.42
2019-01-13T14:54:14.057Z,37.40
2019-01-13T14:57:19.894Z,37.56
2019-01-13T15:00:30.884Z,37.68
2019-01-13T15:03:36.546Z,37.73
2019-01-13T15:06:42.276Z,38.00
2019-01-13T15:09:47.890Z,38.37
2019-01-13T15:12:53.533Z,38.30
2019-01-13T15:15:59.162Z,38.23
2019-01-13T15:19:04.901Z,38.88
2019-01-13T15:22:10.686Z,38.74
2019-01-13T15:25:22.355Z,38.79
2019-01-13T15:28:27.988Z,39.12
2019-01-13T15:31:34.618Z,38.82
2019-01-13T15:34:40.255Z,39.40
2019-01-13T15:37:45.995Z,39.24
2019-01-13T15:40:51.583Z,39.60
2019-01-13T15:43:57.532Z,39.88
2019-01-13T15:47:03.253Z,39.53
2019-01-13T15:50:12.675Z,39.22
2019-01-13T15:53:18.310Z,39.83
2019-01-13T15:56:24.025Z,39.36
2019-01-13T15:59:29.716Z,39.27
2019-01-13T16:02:35.370Z,39.25
2019-01-13T16:05:41.207Z,39.52
2019-01-13T16:08:46.843Z,39.66
2019-01-13T16:11:52.468Z,40.02
2019-01-13T16:14:58.167Z,40.21
2019-01-13T16:18:04.137Z,40.26
2019-01-13T16:21:09.860Z,40.17
2019-01-13T16:24:15.529Z,40.31
2019-01-13T16:27:22.387Z,40.26
2019-01-13T16:30:28.505Z,40.57
2019-01-13T16:33:34.277Z,40.81
2019-01-13T16:36:39.912Z,40.71
2019-01-13T16:39:45.560Z,41.39
2019-01-13T16:42:51.163Z,41.20
2019-01-13T16:45:56.794Z,41.34
2019-01-13T16:49:02.470Z,41.27
2019-01-13T16:52:08.158Z,41.40
2019-01-13T16:55:14.197Z,41.63
2019-01-13T16:58:19.840Z,41.70
2019-01-13T17:01:25.554Z,41.75
2019-01-13T17:04:31.345Z,41.80
2019-01-13T17:07:36.977Z,42.19
2019-01-13T17:10:42.585Z,42.25
2019-01-13T17:13:48.303Z,42.26
2019-01-13T17:16:53.935Z,42.53
2019-01-13T17:19:59.574Z,42.35
2019-01-13T17:23:05.440Z,42.44
2019-01-13T17:26:11.126Z,42.57
2019-01-13T17:29:16.737Z,43.14
2019-01-13T17:32:22.500Z,42.90
2019-01-13T17:35:28.320Z,43.00
2019-01-13T17:38:34.100Z,43.23
2019-01-13T17:41:39.764Z,43.64
2019-01-13T17:44:45.586Z,43.82
2019-01-13T17:47:51.964Z,43.61
2019-01-13T17:50:57.639Z,44.23
2019-01-13T17:54:03.334Z,44.33
2019-01-13T17:57:08.987Z,44.60
2019-01-13T18:00:32.967Z,45.19
2019-01-13T18:03:44.376Z,45.42
2019-01-13T18:06:50.027Z,45.70
2019-01-13T18:09:55.671Z,45.14
2019-01-13T18:13:01.301Z,46.05
2019-01-13T18:16:07.074Z,45.87
2019-01-13T18:19:12.839Z,46.13
2019-01-13T18:22:18.541Z,46.25
2019-01-13T18:25:24.194Z,45.85
2019-01-13T18:28:29.890Z,46.39
2019-01-13T18:31:35.521Z,46.43
2019-01-13T18:34:41.135Z,46.51
2019-01-13T18:37:46.729Z,46.24
2019-01-13T18:40:52.383Z,45.84
2019-01-13T18:43:58.135Z,45.66
2019-01-13T18:48:13.934Z,46.14
2019-01-13T18:52:26.998Z,46.16
2019-01-13T18:55:56.322Z,45.91
2019-01-13T19:00:02.464Z,46.27
2019-01-13T19:03:07.995Z,46.37
2019-01-13T19:06:35.439Z,46.55
2019-01-13T19:10:37.912Z,46.80
2019-01-13T19:14:40.445Z,46.51
2019-01-13T19:17:52.676Z,46.11
2019-01-13T19:21:23.530Z,46.67
2019-01-13T19:25:05.520Z,46.18
2019-01-13T19:29:16.863Z,46.14
2019-01-13T19:32:40.758Z,46.02
2019-01-13T19:37:02.622Z,45.49
2019-01-13T19:40:14.005Z,45.90
2019-01-13T19:43:42.403Z,45.92
2019-01-13T19:46:48.053Z,45.60
2019-01-13T19:49:53.675Z,45.53
2019-01-13T19:53:00.534Z,44.96
2019-01-13T19:56:06.502Z,44.73
2019-01-13T19:59:12.109Z,45.10
2019-01-13T20:02:17.734Z,46.51
2019-01-13T20:05:23.342Z,47.40
2019-01-13T20:08:29.013Z,47.92
2019-01-13T20:11:35.062Z,48.17
2019-01-13T20:14:40.698Z,48.46
2019-01-13T20:17:46.496Z,47.64
2019-01-13T20:20:53.615Z,47.39
2019-01-13T20:24:51.287Z,47.89
2019-01-13T20:28:11.066Z,47.26
2019-01-13T20:31:24.497Z,47.33
2019-01-13T20:34:33.335Z,47.37
2019-01-13T20:37:41.259Z,48.10
2019-01-13T20:44:05.475Z,47.37
2019-01-13T20:47:17.340Z,47.69
2019-01-13T20:50:23.152Z,48.16
2019-01-13T20:53:28.803Z,47.78
2019-01-13T20:56:34.436Z,47.71
2019-01-13T20:59:40.124Z,47.38
2019-01-13T21:02:45.913Z,47.08
2019-01-13T21:05:51.800Z,47.39
2019-01-13T21:08:57.467Z,47.19
2019-01-13T21:12:03.181Z,47.11
2019-01-13T21:15:11.005Z,46.73
2019-01-13T21:18:16.754Z,48.29
2019-01-13T21:21:22.396Z,47.40
2019-01-13T21:24:28.084Z,47.65
2019-01-13T21:27:33.886Z,48.19
2019-01-13T21:30:39.547Z,47.71
2019-01-13T21:33:45.229Z,47.86
2019-01-13T21:36:50.857Z,49.54
2019-01-13T21:39:56.510Z,48.68
2019-01-13T21:43:02.106Z,48.74
2019-01-13T21:46:08.883Z,49.75
2019-01-13T21:49:15.607Z,49.24
2019-01-13T21:52:21.311Z,49.25
2019-01-13T21:55:26.925Z,50.79
2019-01-13T21:58:34.420Z,50.06
2019-01-13T22:01:40.064Z,48.89
2019-01-13T22:04:45.587Z,48.26
2019-01-13T22:07:51.280Z,49.14
2019-01-13T22:10:58.043Z,50.14
2019-01-13T22:14:03.682Z,50.56
2019-01-13T22:17:09.364Z,51.51
2019-01-13T22:20:17.135Z,51.62
2019-01-13T22:23:22.670Z,52.95
2019-01-13T22:26:28.257Z,50.48
2019-01-13T22:29:33.799Z,50.12
2019-01-13T22:32:39.321Z,50.32
2019-01-13T22:35:48.335Z,50.42
2019-01-13T22:38:52.089Z,50.42
2019-01-13T22:41:57.682Z,50.40
2019-01-13T22:45:03.278Z,51.56
2019-01-13T22:48:08.979Z,50.92
2019-01-13T22:51:14.604Z,51.26
2019-01-13T22:54:20.244Z,50.76
2019-01-13T22:57:25.926Z,51.98
2019-01-13T23:01:05.336Z,51.66
2019-01-13T23:04:15.860Z,51.07
2019-01-13T23:07:21.627Z,51.64
2019-01-13T23:10:27.251Z,52.35
2019-01-13T23:13:33.977Z,51.64
2019-01-13T23:16:39.962Z,51.31
2019-01-13T23:19:45.709Z,51.75
2019-01-13T23:22:51.363Z,51.15
2019-01-13T23:25:56.981Z,50.58
2019-01-13T23:29:02.609Z,52.40
2019-01-13T23:32:08.259Z,51.36
2019-01-13T23:35:13.867Z,51.28
2019-01-13T23:38:19.487Z,51.40
2019-01-13T23:41:25.108Z,51.25
2019-01-13T23:44:30.795Z,50.52
2019-01-13T23:47:36.439Z,51.26
2019-01-13T23:50:42.071Z,51.83
2019-01-13T23:53:47.729Z,51.17
2019-01-13T23:56:54.451Z,51.19
